createdAt,value
2023-04-27T00:00:24.667Z,34.04
2023-04-27T00:01:28.408Z,34.28
2023-04-27T00:02:33.304Z,34.19
2023-04-27T00:03:37.192Z,34.33
2023-04-27T00:04:41.357Z,34.33
2023-04-27T00:05:45.591Z,34.35
2023-04-27T00:06:49.348Z,34.30
2023-04-27T00:07:53.004Z,34.35
2023-04-27T00:08:56.596Z,34.37
2023-04-27T00:10:00.195Z,34.41
2023-04-27T00:11:03.896Z,34.29
2023-04-27T00:12:08.099Z,34.41
2023-04-27T00:13:11.840Z,34.49
2023-04-27T00:14:17.531Z,34.35
2023-04-27T00:15:21.293Z,34.50
2023-04-27T00:16:25.051Z,34.53
2023-04-27T00:17:28.812Z,34.55
2023-04-27T00:18:36.648Z,34.46
2023-04-27T00:19:40.362Z,34.59
2023-04-27T00:20:43.993Z,34.32
2023-04-27T00:21:47.806Z,34.62
2023-04-27T00:22:51.597Z,34.60
2023-04-27T00:23:56.079Z,34.63
2023-04-27T00:24:59.761Z,34.64
2023-04-27T00:26:03.437Z,34.65
2023-04-27T00:27:07.177Z,34.68
2023-04-27T00:28:10.797Z,34.65
2023-04-27T00:29:14.687Z,34.61
2023-04-27T00:30:20.406Z,34.72
2023-04-27T00:31:24.112Z,34.60
2023-04-27T00:32:27.893Z,34.75
2023-04-27T00:33:31.651Z,34.68
2023-04-27T00:34:35.294Z,34.67
2023-04-27T00:35:38.909Z,34.71
2023-04-27T00:36:42.486Z,34.78
2023-04-27T00:37:46.214Z,34.85
2023-04-27T00:38:49.995Z,34.83
2023-04-27T00:39:53.675Z,34.88
2023-04-27T00:41:02.948Z,34.88
2023-04-27T00:42:06.925Z,34.88
2023-04-27T00:43:10.742Z,34.83
2023-04-27T00:44:15.037Z,34.91
2023-04-27T00:45:20.392Z,34.90
2023-04-27T00:46:30.248Z,34.06
2023-04-27T00:47:39.289Z,34.96
2023-04-27T00:48:46.649Z,34.99
2023-04-27T00:49:50.847Z,35.00
2023-04-27T00:50:55.163Z,35.06
2023-04-27T00:51:59.024Z,34.99
2023-04-27T00:53:02.951Z,35.07
2023-04-27T00:54:06.964Z,35.10
2023-04-27T00:55:10.805Z,35.13
2023-04-27T00:56:14.604Z,35.09
2023-04-27T00:57:18.356Z,35.17
2023-04-27T00:58:21.982Z,35.14
2023-04-27T00:59:25.652Z,35.02
2023-04-27T01:00:31.151Z,35.22
2023-04-27T01:01:35.361Z,35.19
2023-04-27T01:02:39.796Z,34.95
2023-04-27T01:03:43.734Z,35.02
2023-04-27T01:04:47.840Z,35.31
2023-04-27T01:05:54.492Z,35.30
2023-04-27T01:06:58.126Z,35.03
2023-04-27T01:08:02.334Z,35.35
2023-04-27T01:09:06.312Z,35.24
2023-04-27T01:10:10.793Z,35.29
2023-04-27T01:11:14.440Z,35.42
2023-04-27T01:12:18.118Z,35.28
2023-04-27T01:13:21.801Z,34.96
2023-04-27T01:14:25.526Z,35.41
2023-04-27T01:15:31.138Z,35.37
2023-04-27T01:16:35.197Z,35.33
2023-04-27T01:17:38.913Z,35.48
2023-04-27T01:18:42.557Z,35.31
2023-04-27T01:19:46.222Z,35.55
2023-04-27T01:20:49.872Z,35.58
2023-04-27T01:21:53.688Z,35.52
2023-04-27T01:22:57.619Z,35.62
2023-04-27T01:24:04.693Z,35.63
2023-04-27T01:25:09.211Z,35.63
2023-04-27T01:26:13.140Z,35.70
2023-04-27T01:27:16.858Z,35.67
2023-04-27T01:28:20.772Z,35.69
2023-04-27T01:29:24.467Z,35.49
2023-04-27T01:30:28.156Z,35.73
2023-04-27T01:31:35.576Z,35.74
2023-04-27T01:32:39.413Z,35.75
2023-04-27T01:33:43.253Z,35.65
2023-04-27T01:34:47.054Z,35.75
2023-04-27T01:35:50.676Z,35.80
2023-04-27T01:36:54.508Z,35.85
2023-04-27T01:37:58.953Z,35.88
2023-04-27T01:39:04.423Z,35.91
2023-04-27T01:40:09.325Z,35.92
2023-04-27T01:41:13.028Z,35.95
2023-04-27T01:42:16.897Z,35.97
2023-04-27T01:43:20.606Z,35.95
2023-04-27T01:44:24.271Z,35.98
2023-04-27T01:45:27.994Z,36.01
2023-04-27T01:46:31.722Z,35.98
2023-04-27T01:47:35.453Z,36.03
2023-04-27T01:48:39.998Z,35.72
2023-04-27T01:49:44.206Z,36.05
2023-04-27T01:50:47.909Z,35.96
2023-04-27T01:51:51.639Z,36.04
2023-04-27T01:52:55.343Z,35.94
2023-04-27T01:53:59.688Z,36.06
2023-04-27T01:55:05.421Z,35.96
2023-04-27T01:56:09.154Z,36.08
2023-04-27T01:57:12.934Z,36.09
2023-04-27T01:58:17.124Z,36.09
2023-04-27T01:59:30.349Z,36.11
2023-04-27T02:00:34.077Z,36.11
2023-04-27T02:01:37.869Z,36.15
2023-04-27T02:02:42.078Z,35.92
2023-04-27T02:03:46.239Z,36.24
2023-04-27T02:04:50.068Z,36.24
2023-04-27T02:05:53.833Z,36.25
2023-04-27T02:06:57.406Z,36.27
2023-04-27T02:08:01.596Z,36.28
2023-04-27T02:09:05.383Z,36.29
2023-04-27T02:10:11.620Z,36.27
2023-04-27T02:11:15.250Z,36.06
2023-04-27T02:12:18.990Z,36.08
2023-04-27T02:13:22.663Z,36.33
2023-04-27T02:14:26.391Z,36.32
2023-04-27T02:15:30.121Z,36.31
2023-04-27T02:16:33.912Z,36.38
2023-04-27T02:17:37.815Z,36.42
2023-04-27T02:18:41.467Z,36.38
2023-04-27T02:19:45.156Z,36.20
2023-04-27T02:20:48.832Z,36.41
2023-04-27T02:21:52.504Z,36.47
2023-04-27T02:22:56.194Z,36.48
2023-04-27T02:23:59.893Z,36.26
2023-04-27T02:25:03.859Z,36.43
2023-04-27T02:26:09.174Z,36.39
2023-04-27T02:27:12.866Z,36.62
2023-04-27T02:28:17.181Z,36.63
2023-04-27T02:29:21.265Z,36.56
2023-04-27T02:30:25.235Z,36.71
2023-04-27T02:31:29.262Z,36.51
2023-04-27T02:32:32.989Z,36.76
2023-04-27T02:33:36.600Z,36.77
2023-04-27T02:34:40.292Z,36.79
2023-04-27T02:35:43.971Z,36.79
2023-04-27T02:36:47.640Z,36.81
2023-04-27T02:37:51.290Z,36.83
2023-04-27T02:38:54.915Z,36.73
2023-04-27T02:39:58.861Z,36.83
2023-04-27T02:41:02.506Z,36.73
2023-04-27T02:42:07.944Z,36.74
2023-04-27T02:43:11.596Z,36.71
2023-04-27T02:44:15.248Z,36.76
2023-04-27T02:45:19.051Z,36.82
2023-04-27T02:46:22.788Z,36.89
2023-04-27T02:47:26.516Z,36.88
2023-04-27T02:48:30.934Z,36.88
2023-04-27T02:49:35.681Z,36.91
2023-04-27T02:50:42.388Z,36.92
2023-04-27T02:51:46.080Z,37.01
2023-04-27T02:52:49.809Z,37.00
2023-04-27T02:53:54.758Z,37.03
2023-04-27T02:54:58.455Z,36.99
2023-04-27T02:56:02.196Z,36.75
2023-04-27T02:57:07.635Z,37.05
2023-04-27T02:58:11.607Z,36.59
2023-04-27T02:59:15.735Z,36.89
2023-04-27T03:00:25.893Z,37.09
2023-04-27T03:01:29.575Z,37.08
2023-04-27T03:02:38.326Z,37.12
2023-04-27T03:03:42.483Z,37.02
2023-04-27T03:04:46.574Z,37.07
2023-04-27T03:05:50.319Z,37.03
2023-04-27T03:06:57.398Z,37.04
2023-04-27T03:08:01.277Z,37.18
2023-04-27T03:09:06.587Z,37.31
2023-04-27T03:10:11.712Z,37.17
2023-04-27T03:11:16.607Z,37.27
2023-04-27T03:12:22.639Z,37.26
2023-04-27T03:13:27.299Z,37.36
2023-04-27T03:14:35.083Z,37.16
2023-04-27T03:15:39.242Z,37.28
2023-04-27T03:16:42.944Z,37.42
2023-04-27T03:17:47.043Z,37.53
2023-04-27T03:19:00.381Z,37.50
2023-04-27T03:20:11.989Z,37.46
2023-04-27T03:22:47.285Z,37.67
2023-04-27T03:23:51.552Z,37.72
2023-04-27T03:24:55.547Z,37.73
2023-04-27T03:25:59.944Z,37.83
2023-04-27T03:27:05.782Z,37.87
2023-04-27T03:28:11.316Z,37.79
2023-04-27T03:29:20.126Z,37.87
2023-04-27T03:30:35.687Z,38.00
2023-04-27T03:31:39.658Z,37.96
2023-04-27T03:32:48.342Z,38.01
2023-04-27T03:33:53.436Z,38.06
2023-04-27T03:34:57.552Z,37.99
2023-04-27T03:36:01.588Z,38.01
2023-04-27T03:37:05.844Z,37.87
2023-04-27T03:38:12.714Z,38.14
2023-04-27T03:39:29.662Z,38.11
2023-04-27T03:40:35.653Z,38.14
2023-04-27T03:41:39.338Z,38.15
2023-04-27T03:42:51.235Z,38.13
2023-04-27T03:44:19.012Z,38.11
2023-04-27T03:45:29.630Z,38.10
2023-04-27T03:46:33.441Z,38.05
2023-04-27T03:47:39.055Z,38.07
2023-04-27T03:48:43.265Z,37.43
2023-04-27T03:49:46.925Z,38.10
2023-04-27T03:50:58.102Z,37.83
2023-04-27T03:52:01.729Z,37.89
2023-04-27T03:53:06.462Z,38.04
2023-04-27T03:54:10.207Z,38.10
2023-04-27T03:55:14.041Z,38.14
2023-04-27T03:56:23.009Z,38.11
2023-04-27T03:57:27.270Z,38.07
2023-04-27T03:58:31.019Z,38.09
2023-04-27T03:59:36.764Z,37.92
2023-04-27T04:00:46.266Z,38.00
2023-04-27T04:01:51.847Z,38.21
2023-04-27T04:02:55.884Z,38.17
2023-04-27T04:03:59.840Z,38.16
2023-04-27T04:05:03.652Z,38.40
2023-04-27T04:06:08.144Z,38.44
2023-04-27T04:07:11.877Z,38.25
2023-04-27T04:08:15.658Z,38.33
2023-04-27T04:09:22.005Z,38.32
2023-04-27T04:10:27.598Z,38.44
2023-04-27T04:11:32.128Z,38.55
2023-04-27T04:12:37.774Z,38.48
2023-04-27T04:13:41.482Z,38.69
2023-04-27T04:14:46.731Z,38.67
2023-04-27T04:15:50.556Z,38.75
2023-04-27T04:16:54.300Z,38.78
2023-04-27T04:17:58.777Z,38.68
2023-04-27T04:19:02.441Z,38.84
2023-04-27T04:20:06.906Z,38.89
2023-04-27T04:21:11.286Z,38.91
2023-04-27T04:23:37.181Z,39.00
2023-04-27T04:24:41.710Z,38.93
2023-04-27T04:25:46.960Z,38.92
2023-04-27T04:26:51.133Z,39.11
2023-04-27T04:27:55.683Z,39.15
2023-04-27T04:29:19.563Z,39.22
2023-04-27T04:30:55.047Z,39.04
2023-04-27T04:33:36.075Z,39.22
2023-04-27T04:35:01.036Z,39.26
2023-04-27T04:36:23.157Z,39.29
2023-04-27T04:37:52.625Z,39.44
2023-04-27T04:39:17.076Z,39.46
2023-04-27T04:40:20.967Z,39.52
2023-04-27T04:42:43.861Z,39.45
2023-04-27T04:43:47.556Z,39.54
2023-04-27T04:44:53.311Z,39.56
2023-04-27T04:45:57.078Z,39.73
2023-04-27T04:47:00.746Z,39.77
2023-04-27T04:48:06.394Z,39.68
2023-04-27T04:49:16.745Z,39.84
2023-04-27T04:50:26.225Z,39.83
2023-04-27T04:51:29.996Z,39.85
2023-04-27T04:52:34.333Z,39.85
2023-04-27T04:53:40.694Z,39.86
2023-04-27T04:54:47.537Z,39.85
2023-04-27T04:55:53.634Z,39.78
2023-04-27T04:56:57.424Z,39.88
2023-04-27T04:58:01.004Z,39.91
2023-04-27T04:59:11.890Z,39.75
2023-04-27T05:00:16.507Z,39.86
2023-04-27T05:01:21.896Z,39.81
2023-04-27T05:02:25.891Z,39.89
2023-04-27T05:03:46.338Z,39.86
2023-04-27T05:04:50.379Z,39.94
2023-04-27T05:05:59.670Z,39.94
2023-04-27T05:07:04.189Z,39.96
2023-04-27T05:08:07.924Z,40.01
2023-04-27T05:09:11.697Z,40.03
2023-04-27T05:10:17.834Z,40.05
2023-04-27T05:11:27.490Z,39.91
2023-04-27T05:12:32.383Z,39.96
2023-04-27T05:13:38.740Z,40.12
2023-04-27T05:14:43.634Z,40.06
2023-04-27T05:15:48.107Z,40.07
2023-04-27T05:16:52.180Z,40.20
2023-04-27T05:17:56.969Z,40.27
2023-04-27T05:19:02.351Z,40.30
2023-04-27T05:20:07.074Z,40.11
2023-04-27T05:21:15.822Z,40.22
2023-04-27T05:22:44.091Z,40.22
2023-04-27T05:23:47.824Z,40.21
2023-04-27T05:24:51.900Z,40.22
2023-04-27T05:25:55.988Z,40.29
2023-04-27T05:27:00.813Z,40.16
2023-04-27T05:28:06.065Z,40.32
2023-04-27T05:29:09.787Z,39.94
2023-04-27T05:30:14.609Z,40.06
2023-04-27T05:31:18.528Z,40.04
2023-04-27T05:32:22.792Z,39.99
2023-04-27T05:33:26.719Z,39.95
2023-04-27T05:34:32.026Z,39.86
2023-04-27T05:35:35.966Z,39.86
2023-04-27T05:36:39.671Z,39.86
2023-04-27T05:37:43.511Z,39.84
2023-04-27T05:38:47.213Z,39.76
2023-04-27T05:39:51.161Z,39.75
2023-04-27T05:40:56.480Z,39.68
2023-04-27T05:42:01.412Z,39.70
2023-04-27T05:43:05.177Z,39.66
2023-04-27T05:44:08.943Z,39.61
2023-04-27T05:45:13.199Z,39.56
2023-04-27T05:46:17.177Z,39.50
2023-04-27T05:47:22.122Z,39.49
2023-04-27T05:48:25.879Z,39.37
2023-04-27T05:49:31.253Z,39.46
2023-04-27T05:50:35.182Z,39.49
2023-04-27T05:51:38.924Z,39.51
2023-04-27T05:52:42.740Z,39.47
2023-04-27T05:53:46.423Z,39.48
2023-04-27T05:54:50.587Z,39.51
2023-04-27T05:55:54.311Z,39.24
2023-04-27T05:56:57.910Z,39.58
2023-04-27T05:58:08.569Z,39.66
2023-04-27T05:59:13.128Z,39.64
2023-04-27T06:00:18.035Z,39.70
2023-04-27T06:01:21.949Z,39.54
2023-04-27T06:02:25.909Z,39.60
2023-04-27T06:03:30.991Z,39.59
2023-04-27T06:04:36.854Z,39.65
2023-04-27T06:05:40.644Z,39.77
2023-04-27T06:06:44.381Z,39.77
2023-04-27T06:07:48.136Z,39.79
2023-04-27T06:08:51.890Z,39.78
2023-04-27T06:09:55.544Z,39.74
2023-04-27T06:10:59.215Z,39.71
2023-04-27T06:12:02.907Z,39.58
2023-04-27T06:13:06.704Z,39.51
2023-04-27T06:14:10.600Z,39.59
2023-04-27T06:15:15.390Z,39.52
2023-04-27T06:16:20.577Z,39.41
2023-04-27T06:17:25.782Z,39.35
2023-04-27T06:18:29.593Z,39.25
2023-04-27T06:19:33.507Z,39.19
2023-04-27T06:20:39.972Z,39.01
2023-04-27T06:21:43.667Z,39.05
2023-04-27T06:22:47.492Z,38.91
2023-04-27T06:23:51.408Z,38.90
2023-04-27T06:24:55.155Z,38.79
2023-04-27T06:25:58.952Z,38.89
2023-04-27T06:27:02.599Z,38.86
2023-04-27T06:28:06.564Z,38.81
2023-04-27T06:29:10.290Z,38.76
2023-04-27T06:30:14.624Z,38.66
2023-04-27T06:31:18.835Z,38.39
2023-04-27T06:32:22.637Z,38.59
2023-04-27T06:33:26.454Z,38.59
2023-04-27T06:34:30.224Z,38.59
2023-04-27T06:35:33.940Z,38.31
2023-04-27T06:36:39.358Z,38.52
2023-04-27T06:37:43.169Z,38.42
2023-04-27T06:38:46.885Z,38.52
2023-04-27T06:39:50.599Z,38.50
2023-04-27T06:40:54.300Z,38.48
2023-04-27T06:41:57.955Z,38.49
2023-04-27T06:43:01.610Z,38.47
2023-04-27T06:44:05.288Z,38.50
2023-04-27T06:45:09.686Z,38.44
2023-04-27T06:46:13.477Z,38.37
2023-04-27T06:47:17.161Z,38.19
2023-04-27T06:48:20.961Z,38.39
2023-04-27T06:49:24.773Z,38.35
2023-04-27T06:50:28.726Z,38.50
2023-04-27T06:51:32.490Z,38.29
2023-04-27T06:52:39.522Z,38.48
2023-04-27T06:53:43.297Z,38.69
2023-04-27T06:54:47.065Z,38.73
2023-04-27T06:55:50.880Z,38.80
2023-04-27T06:56:54.681Z,38.77
2023-04-27T06:57:58.431Z,38.50
2023-04-27T06:59:02.295Z,38.97
2023-04-27T07:00:06.995Z,38.84
2023-04-27T07:01:11.174Z,39.19
2023-04-27T07:02:15.054Z,39.23
2023-04-27T07:03:19.522Z,39.30
2023-04-27T07:04:23.530Z,39.27
2023-04-27T07:05:27.439Z,39.37
2023-04-27T07:06:31.301Z,39.42
2023-04-27T07:07:36.587Z,39.44
2023-04-27T07:08:40.314Z,39.43
2023-04-27T07:09:44.216Z,39.41
2023-04-27T07:10:48.114Z,39.43
2023-04-27T07:11:52.045Z,39.36
2023-04-27T07:12:55.959Z,39.27
2023-04-27T07:13:59.822Z,39.34
2023-04-27T07:15:04.340Z,39.23
2023-04-27T07:16:08.910Z,39.28
2023-04-27T07:17:12.659Z,39.32
2023-04-27T07:18:16.616Z,39.29
2023-04-27T07:19:20.535Z,39.24
2023-04-27T07:20:24.841Z,39.31
2023-04-27T07:21:29.062Z,39.42
2023-04-27T07:22:33.372Z,39.50
2023-04-27T07:23:39.363Z,39.43
2023-04-27T07:24:43.325Z,39.56
2023-04-27T07:25:47.253Z,39.68
2023-04-27T07:26:51.059Z,39.59
2023-04-27T07:27:55.032Z,39.78
2023-04-27T07:28:59.417Z,39.82
2023-04-27T07:30:03.432Z,39.94
2023-04-27T07:31:07.770Z,39.92
2023-04-27T07:32:11.664Z,40.05
2023-04-27T07:33:18.537Z,40.08
2023-04-27T07:34:22.445Z,40.26
2023-04-27T07:35:28.033Z,40.17
2023-04-27T07:36:31.816Z,40.25
2023-04-27T07:37:36.046Z,40.37
2023-04-27T07:38:41.575Z,40.41
2023-04-27T07:39:45.966Z,40.05
2023-04-27T07:40:49.840Z,40.10
2023-04-27T07:41:54.201Z,39.61
2023-04-27T07:42:58.286Z,40.22
2023-04-27T07:44:02.290Z,40.46
2023-04-27T07:45:08.253Z,40.33
2023-04-27T07:46:12.986Z,40.36
2023-04-27T07:47:17.803Z,40.29
2023-04-27T07:48:21.976Z,40.34
2023-04-27T07:49:26.171Z,40.55
2023-04-27T07:50:36.762Z,40.42
2023-04-27T07:51:40.669Z,40.47
2023-04-27T07:52:45.731Z,40.79
2023-04-27T07:53:51.641Z,40.66
2023-04-27T07:54:56.880Z,40.81
2023-04-27T07:56:02.816Z,40.81
2023-04-27T07:57:10.177Z,40.81
2023-04-27T07:58:15.748Z,40.93
2023-04-27T07:59:19.798Z,40.81
2023-04-27T08:00:24.709Z,40.89
2023-04-27T08:01:51.055Z,40.89
2023-04-27T08:02:56.479Z,41.14
2023-04-27T08:04:01.717Z,41.11
2023-04-27T08:06:23.725Z,41.02
2023-04-27T08:07:30.258Z,41.17
2023-04-27T08:08:35.087Z,41.20
2023-04-27T08:09:47.407Z,40.90
2023-04-27T08:10:53.029Z,40.68
2023-04-27T08:11:58.664Z,40.71
2023-04-27T08:13:04.425Z,40.95
2023-04-27T08:14:08.143Z,41.14
2023-04-27T08:15:19.675Z,41.07
2023-04-27T08:16:24.460Z,41.16
2023-04-27T08:17:28.289Z,41.02
2023-04-27T08:18:39.645Z,40.81
2023-04-27T08:19:46.766Z,40.74
2023-04-27T08:20:50.886Z,41.14
2023-04-27T08:21:54.701Z,41.10
2023-04-27T08:23:00.127Z,41.05
2023-04-27T08:24:08.320Z,41.23
2023-04-27T08:25:13.870Z,41.07
2023-04-27T08:26:20.823Z,41.21
2023-04-27T08:27:25.961Z,41.23
2023-04-27T08:28:34.997Z,41.26
2023-04-27T08:29:48.924Z,41.30
2023-04-27T08:30:59.720Z,41.26
2023-04-27T08:32:12.122Z,41.13
2023-04-27T08:33:28.152Z,40.99
2023-04-27T08:34:32.186Z,40.96
2023-04-27T08:35:38.294Z,41.03
2023-04-27T08:36:55.065Z,41.23
2023-04-27T08:38:00.821Z,41.19
2023-04-27T08:39:04.755Z,41.07
2023-04-27T08:40:27.562Z,41.21
2023-04-27T08:41:42.102Z,41.26
2023-04-27T08:42:57.039Z,41.12
2023-04-27T08:44:01.124Z,41.31
2023-04-27T08:45:08.572Z,41.04
2023-04-27T08:46:12.915Z,41.15
2023-04-27T08:47:25.802Z,41.23
2023-04-27T08:49:58.571Z,41.17
2023-04-27T08:51:11.822Z,41.27
2023-04-27T08:52:17.410Z,41.21
2023-04-27T08:53:24.231Z,41.06
2023-04-27T08:54:28.078Z,41.18
2023-04-27T08:55:33.582Z,41.22
2023-04-27T08:56:37.481Z,41.21
2023-04-27T08:57:42.070Z,41.25
2023-04-27T08:58:45.928Z,41.25
2023-04-27T08:59:59.905Z,41.13
2023-04-27T09:01:08.021Z,40.98
2023-04-27T09:02:22.749Z,41.26
2023-04-27T09:03:27.129Z,41.29
2023-04-27T09:04:41.349Z,41.35
2023-04-27T09:06:00.547Z,41.10
2023-04-27T09:07:15.393Z,40.85
2023-04-27T09:08:19.291Z,41.04
2023-04-27T09:09:26.112Z,41.13
2023-04-27T09:10:30.073Z,41.20
2023-04-27T09:11:37.031Z,41.22
2023-04-27T09:12:40.818Z,41.06
2023-04-27T09:13:46.370Z,41.03
2023-04-27T09:16:17.425Z,41.20
2023-04-27T09:17:26.503Z,41.19
2023-04-27T09:18:30.517Z,41.22
2023-04-27T09:19:34.913Z,41.14
2023-04-27T09:20:46.293Z,41.20
2023-04-27T09:21:52.370Z,41.08
2023-04-27T09:22:56.104Z,40.90
2023-04-27T09:24:10.274Z,40.82
2023-04-27T09:25:24.503Z,40.84
2023-04-27T09:26:30.160Z,40.74
2023-04-27T09:27:35.750Z,40.62
2023-04-27T09:28:41.129Z,40.34
2023-04-27T09:29:45.102Z,40.11
2023-04-27T09:30:56.739Z,40.90
2023-04-27T09:32:00.823Z,40.39
2023-04-27T09:34:48.549Z,40.88
2023-04-27T09:36:02.341Z,40.81
2023-04-27T09:38:38.464Z,40.53
2023-04-27T09:39:44.383Z,40.66
2023-04-27T09:42:09.647Z,40.32
2023-04-27T09:43:18.713Z,40.79
2023-04-27T09:45:57.845Z,40.54
2023-04-27T09:47:05.062Z,40.73
2023-04-27T09:53:50.524Z,40.62
2023-04-27T09:55:06.950Z,40.44
2023-04-27T09:57:01.212Z,40.40
2023-04-27T09:58:28.149Z,40.58
2023-04-27T09:59:49.518Z,40.53
2023-04-27T10:01:13.095Z,40.26
2023-04-27T10:06:07.347Z,40.11
2023-04-27T10:07:12.272Z,40.06
2023-04-27T10:08:16.801Z,40.14
2023-04-27T10:09:22.441Z,40.07
2023-04-27T10:10:26.210Z,40.06
2023-04-27T10:11:39.911Z,39.99
2023-04-27T10:12:43.726Z,40.04
2023-04-27T10:13:55.994Z,40.06
2023-04-27T10:15:01.221Z,39.63
2023-04-27T10:16:17.081Z,39.61
2023-04-27T10:17:30.455Z,39.93
2023-04-27T10:18:34.790Z,39.84
2023-04-27T10:19:38.955Z,39.87
2023-04-27T10:20:47.439Z,39.91
2023-04-27T10:22:17.192Z,39.71
2023-04-27T10:23:43.477Z,39.77
2023-04-27T10:24:52.777Z,39.46
2023-04-27T10:25:56.650Z,39.51
2023-04-27T10:27:04.013Z,39.64
2023-04-27T10:28:16.321Z,39.57
2023-04-27T10:29:29.156Z,39.47
2023-04-27T10:30:50.768Z,39.50
2023-04-27T10:31:58.184Z,39.51
2023-04-27T10:33:30.017Z,39.06
2023-04-27T10:34:36.331Z,39.12
2023-04-27T10:35:41.712Z,39.31
2023-04-27T10:36:45.652Z,39.26
2023-04-27T10:37:50.897Z,38.92
2023-04-27T10:38:58.755Z,39.22
2023-04-27T10:40:09.999Z,39.23
2023-04-27T10:41:15.896Z,39.06
2023-04-27T10:42:29.376Z,39.07
2023-04-27T10:43:35.011Z,39.14
2023-04-27T10:44:41.166Z,38.90
2023-04-27T10:45:45.973Z,38.97
2023-04-27T10:46:53.647Z,39.04
2023-04-27T10:48:05.023Z,39.02
2023-04-27T10:49:09.780Z,39.02
2023-04-27T10:50:14.197Z,39.02
2023-04-27T10:51:19.055Z,38.97
2023-04-27T10:52:22.859Z,38.95
2023-04-27T10:53:26.776Z,38.83
2023-04-27T10:54:32.590Z,38.88
2023-04-27T10:55:38.621Z,38.77
2023-04-27T10:56:42.802Z,38.80
2023-04-27T10:57:55.737Z,38.76
2023-04-27T10:59:07.998Z,38.50
2023-04-27T11:00:35.016Z,38.68
2023-04-27T11:01:38.963Z,38.47
2023-04-27T11:02:42.969Z,37.95
2023-04-27T11:03:56.445Z,38.48
2023-04-27T11:05:00.177Z,38.23
2023-04-27T11:06:05.523Z,38.38
2023-04-27T11:07:09.817Z,38.07
2023-04-27T11:08:15.634Z,38.26
2023-04-27T11:09:27.515Z,38.35
2023-04-27T11:10:31.549Z,38.45
2023-04-27T11:11:35.301Z,38.50
2023-04-27T11:12:38.994Z,38.40
2023-04-27T11:13:44.762Z,38.39
2023-04-27T11:14:48.634Z,38.46
2023-04-27T11:15:57.495Z,38.30
2023-04-27T11:17:06.825Z,38.45
2023-04-27T11:18:10.620Z,38.30
2023-04-27T11:19:18.293Z,38.42
2023-04-27T11:20:26.300Z,38.35
2023-04-27T11:21:30.340Z,38.37
2023-04-27T11:22:34.367Z,38.31
2023-04-27T11:23:38.925Z,37.94
2023-04-27T11:25:00.138Z,38.27
2023-04-27T11:26:14.911Z,38.26
2023-04-27T11:27:20.446Z,37.98
2023-04-27T11:28:24.782Z,38.29
2023-04-27T11:29:39.082Z,38.04
2023-04-27T11:30:42.763Z,38.26
2023-04-27T11:31:49.656Z,38.23
2023-04-27T11:32:53.639Z,38.18
2023-04-27T11:33:57.528Z,38.23
2023-04-27T11:35:01.237Z,38.21
2023-04-27T11:36:05.386Z,38.20
2023-04-27T11:38:18.937Z,38.09
2023-04-27T11:39:22.770Z,38.15
2023-04-27T11:40:26.679Z,38.17
2023-04-27T11:41:36.581Z,38.02
2023-04-27T11:42:41.140Z,38.10
2023-04-27T11:43:45.774Z,38.11
2023-04-27T11:46:23.518Z,38.07
2023-04-27T11:47:34.686Z,38.04
2023-04-27T11:48:40.346Z,38.02
2023-04-27T11:49:56.232Z,38.03
2023-04-27T11:52:29.851Z,38.06
2023-04-27T11:53:52.499Z,37.82
2023-04-27T11:55:33.742Z,37.77
2023-04-27T11:56:38.921Z,37.81
2023-04-27T11:57:42.923Z,38.04
2023-04-27T11:58:46.820Z,37.34
2023-04-27T11:59:50.499Z,37.61
2023-04-27T12:00:54.407Z,37.35
2023-04-27T12:02:29.896Z,37.87
2023-04-27T12:03:41.814Z,37.71
2023-04-27T12:04:58.214Z,37.90
2023-04-27T12:07:08.434Z,37.89
2023-04-27T12:08:12.086Z,37.85
2023-04-27T12:09:16.516Z,37.85
2023-04-27T12:10:22.788Z,37.76
2023-04-27T12:11:29.213Z,37.84
2023-04-27T12:12:36.413Z,37.85
2023-04-27T12:13:40.235Z,37.76
2023-04-27T12:14:44.237Z,37.84
2023-04-27T12:15:48.261Z,37.82
2023-04-27T12:16:52.544Z,37.85
2023-04-27T12:17:57.986Z,37.53
2023-04-27T12:19:01.673Z,37.84
2023-04-27T12:20:06.320Z,37.82
2023-04-27T12:21:10.306Z,37.82
2023-04-27T12:22:15.722Z,37.82
2023-04-27T12:23:21.310Z,37.81
2023-04-27T12:24:31.179Z,37.78
2023-04-27T12:25:38.680Z,37.77
2023-04-27T12:27:03.331Z,37.76
2023-04-27T12:28:16.347Z,37.72
2023-04-27T12:29:20.848Z,37.71
2023-04-27T12:30:25.139Z,37.68
2023-04-27T12:31:29.780Z,37.41
2023-04-27T12:32:33.641Z,37.60
2023-04-27T12:33:38.912Z,37.61
2023-04-27T12:34:42.605Z,37.65
2023-04-27T12:35:46.310Z,37.56
2023-04-27T12:36:50.369Z,37.51
2023-04-27T12:37:54.402Z,37.41
2023-04-27T12:39:15.999Z,37.50
2023-04-27T12:40:19.828Z,37.54
2023-04-27T12:41:24.438Z,37.54
2023-04-27T12:42:28.321Z,37.57
2023-04-27T12:43:48.142Z,37.50
2023-04-27T12:44:58.064Z,37.54
2023-04-27T12:46:01.804Z,37.41
2023-04-27T12:47:07.299Z,37.30
2023-04-27T12:48:11.250Z,37.25
2023-04-27T12:49:17.047Z,37.45
2023-04-27T12:50:29.883Z,37.52
2023-04-27T12:51:35.601Z,37.51
2023-04-27T12:52:44.071Z,37.40
2023-04-27T12:53:48.083Z,37.39
2023-04-27T12:54:51.823Z,37.46
2023-04-27T12:55:56.068Z,37.44
2023-04-27T12:57:01.509Z,37.31
2023-04-27T12:58:05.581Z,37.17
2023-04-27T12:59:09.293Z,37.47
2023-04-27T13:00:13.969Z,37.49
2023-04-27T13:01:21.037Z,37.40
2023-04-27T13:02:33.378Z,37.42
2023-04-27T13:03:40.441Z,37.46
2023-04-27T13:04:46.156Z,37.34
2023-04-27T13:05:49.963Z,37.47
2023-04-27T13:06:59.349Z,37.47
2023-04-27T13:08:04.086Z,37.47
2023-04-27T13:09:07.865Z,37.50
2023-04-27T13:10:12.183Z,37.36
2023-04-27T13:11:16.250Z,37.46
2023-04-27T13:12:22.666Z,37.45
2023-04-27T13:13:46.362Z,37.45
2023-04-27T13:14:50.242Z,37.47
2023-04-27T13:15:53.986Z,37.46
2023-04-27T13:16:57.811Z,37.50
2023-04-27T13:19:20.260Z,37.45
2023-04-27T13:21:51.260Z,37.38
2023-04-27T13:23:01.186Z,37.23
2023-04-27T13:24:12.458Z,37.36
2023-04-27T13:25:24.324Z,37.34
2023-04-27T13:26:29.109Z,37.33
2023-04-27T13:27:37.238Z,37.35
2023-04-27T13:28:43.550Z,37.37
2023-04-27T13:29:50.469Z,37.39
2023-04-27T13:30:54.521Z,37.39
2023-04-27T13:31:58.392Z,37.40
2023-04-27T13:33:18.690Z,37.41
2023-04-27T13:34:36.852Z,37.39
2023-04-27T13:35:45.275Z,37.21
2023-04-27T13:36:49.510Z,37.15
2023-04-27T13:37:53.575Z,37.27
2023-04-27T13:38:57.253Z,37.36
2023-04-27T13:40:01.010Z,37.37
2023-04-27T13:41:04.783Z,37.27
2023-04-27T13:42:08.380Z,37.36
2023-04-27T13:43:12.049Z,37.37
2023-04-27T13:44:19.439Z,37.27
2023-04-27T13:45:23.256Z,37.37
2023-04-27T13:46:26.982Z,37.33
2023-04-27T13:47:30.832Z,37.35
2023-04-27T13:48:34.620Z,37.31
2023-04-27T13:49:38.503Z,37.09
2023-04-27T13:50:45.293Z,37.30
2023-04-27T13:51:50.371Z,37.29
2023-04-27T13:52:55.397Z,37.11
2023-04-27T13:54:02.208Z,37.25
2023-04-27T13:55:06.972Z,37.27
2023-04-27T13:56:14.289Z,37.20
2023-04-27T13:57:18.846Z,37.20
2023-04-27T13:58:27.090Z,37.21
2023-04-27T13:59:30.929Z,37.24
2023-04-27T14:00:35.060Z,37.19
2023-04-27T14:01:42.107Z,37.10
2023-04-27T14:02:56.394Z,37.17
2023-04-27T14:04:01.333Z,37.25
2023-04-27T14:05:29.772Z,37.25
2023-04-27T14:06:39.086Z,37.11
2023-04-27T14:07:43.030Z,37.24
2023-04-27T14:08:46.656Z,37.23
2023-04-27T14:09:50.584Z,37.23
2023-04-27T14:10:59.248Z,37.24
2023-04-27T14:12:07.456Z,37.24
2023-04-27T14:14:30.910Z,37.20
2023-04-27T14:15:36.411Z,37.17
2023-04-27T14:16:45.133Z,37.08
2023-04-27T14:17:48.954Z,37.09
2023-04-27T14:18:58.899Z,37.12
2023-04-27T14:20:04.944Z,37.11
2023-04-27T14:21:12.295Z,37.11
2023-04-27T14:23:43.917Z,37.18
2023-04-27T14:26:06.730Z,37.15
2023-04-27T14:27:13.604Z,36.69
2023-04-27T14:29:39.418Z,36.98
2023-04-27T14:30:44.269Z,37.02
2023-04-27T14:31:48.671Z,37.15
2023-04-27T14:34:21.614Z,37.21
2023-04-27T14:35:40.102Z,37.13
2023-04-27T14:36:59.094Z,36.88
2023-04-27T14:38:06.007Z,37.20
2023-04-27T14:39:28.712Z,37.19
2023-04-27T14:40:44.356Z,37.17
2023-04-27T14:43:07.571Z,37.18
2023-04-27T14:44:20.143Z,37.19
2023-04-27T14:45:51.594Z,37.19
2023-04-27T14:46:57.969Z,37.03
2023-04-27T14:48:02.924Z,37.20
2023-04-27T14:50:24.961Z,37.16
2023-04-27T14:51:29.410Z,37.15
2023-04-27T14:52:35.864Z,37.15
2023-04-27T14:53:41.353Z,37.15
2023-04-27T14:54:45.057Z,37.12
2023-04-27T14:55:48.964Z,36.86
2023-04-27T14:56:56.615Z,36.86
2023-04-27T14:58:02.546Z,36.92